Time;durP1;ratioP1;P1;durP2;ratioP2;P2;SDS_P1;SDS_P2;PMS_P1;PMS_P2;Temp;Humidity;BMP_temperature;BMP_pressure;BME280_temperature;BME280_humidity;BME280_pressure;Samples;Min_cycle;Max_cycle;Signal;HPM_P1;HPM_P2
2023/05/21 00:01:33;;;;;;;3.58;3.28;;;18.50;68.30;;;;;;3962449;29;20319;-55
2023/05/21 00:04:14;;;;;;;4.30;3.17;;;18.50;67.50;;;;;;3973713;29;20062;-54
2023/05/21 00:06:57;;;;;;;3.73;3.43;;;18.50;67.60;;;;;;3958853;29;20395;-55
2023/05/21 00:09:38;;;;;;;6.57;3.40;;;18.50;67.80;;;;;;3963122;29;20649;-55
2023/05/21 00:12:19;;;;;;;4.25;3.53;;;18.50;67.80;;;;;;3973464;29;20068;-54
2023/05/21 00:15:00;;;;;;;4.43;3.72;;;18.50;68.00;;;;;;3971308;29;20538;-55
2023/05/21 00:17:42;;;;;;;5.32;3.42;;;18.50;67.90;;;;;;3973288;29;20148;-55
2023/05/21 00:20:23;;;;;;;6.35;3.55;;;18.40;67.70;;;;;;3973512;29;20050;-55
2023/05/21 00:23:05;;;;;;;4.05;3.45;;;18.50;67.80;;;;;;3962038;29;20070;-55
2023/05/21 00:25:46;;;;;;;5.30;3.67;;;18.40;67.90;;;;;;3966250;29;20061;-55
2023/05/21 00:28:27;;;;;;;6.80;3.70;;;18.40;68.10;;;;;;3958371;29;20061;-54
2023/05/21 00:31:09;;;;;;;4.13;3.40;;;18.40;68.20;;;;;;3958104;29;20531;-55
2023/05/21 00:33:50;;;;;;;;;;;18.40;68.30;;;;;;3958423;29;20058;-54
2023/05/21 00:36:33;;;;;;;3.78;3.15;;;18.40;68.20;;;;;;3958348;29;19941;-54
2023/05/21 00:39:15;;;;;;;3.75;3.45;;;18.40;68.20;;;;;;3958178;29;20062;-55
2023/05/21 00:41:56;;;;;;;4.72;3.95;;;18.40;68.30;;;;;;3958238;29;20084;-55
2023/05/21 00:44:38;;;;;;;3.95;3.45;;;18.40;68.50;;;;;;3972162;29;20057;-56
2023/05/21 00:47:20;;;;;;;4.00;3.42;;;18.40;69.30;;;;;;3961437;29;20070;-56
2023/05/21 00:50:02;;;;;;;4.03;3.45;;;18.40;68.40;;;;;;3972222;29;20053;-55
2023/05/21 00:52:44;;;;;;;6.45;3.67;;;18.40;68.40;;;;;;3961395;29;20049;-55
2023/05/21 00:55:27;;;;;;;4.03;3.72;;;18.40;68.50;;;;;;3958064;29;20058;-55
2023/05/21 00:58:08;;;;;;;3.67;3.38;;;18.40;68.50;;;;;;3957700;29;20062;-55
2023/05/21 01:00:49;;;;;;;4.20;3.42;;;18.40;68.50;;;;;;3946696;29;20070;-56
2023/05/21 01:03:36;;;;;;;3.95;3.45;;;18.40;68.60;;;;;;3964579;29;20135;-55
2023/05/21 01:06:19;;;;;;;4.72;3.80;;;18.40;68.70;;;;;;3961841;29;20062;-55
2023/05/21 01:09:02;;;;;;;3.60;3.30;;;18.40;68.70;;;;;;3961490;29;20103;-55
2023/05/21 01:11:48;;;;;;;5.38;3.63;;;18.30;68.80;;;;;;3972939;29;20104;-55
2023/05/21 01:14:31;;;;;;;5.78;3.47;;;18.30;68.90;;;;;;3972629;29;20070;-55
2023/05/21 01:17:12;;;;;;;4.53;3.70;;;18.30;68.90;;;;;;3972685;29;20111;-55
2023/05/21 01:19:53;;;;;;;;;;;18.30;69.00;;;;;;3951660;29;20061;-55
2023/05/21 01:22:35;;;;;;;8.50;3.97;;;18.30;68.90;;;;;;3972062;29;19935;-55
2023/05/21 01:25:18;;;;;;;4.18;3.78;;;18.40;68.90;;;;;;3961445;29;20074;-55
2023/05/21 01:27:58;;;;;;;7.18;3.83;;;18.30;69.00;;;;;;3961067;29;20065;-55
2023/05/21 01:30:41;;;;;;;4.55;3.50;;;18.30;69.10;;;;;;3972769;29;20061;-53
2023/05/21 01:33:29;;;;;;;4.00;3.40;;;18.30;69.20;;;;;;3961347;29;20062;-54
2023/05/21 01:36:20;;;;;;;5.78;4.05;;;18.30;69.30;;;;;;3971998;29;20056;-55
2023/05/21 01:39:07;;;;;;;5.50;3.80;;;18.30;69.50;;;;;;3961405;29;20066;-54
2023/05/21 01:41:53;;;;;;;4.03;3.63;;;18.30;69.50;;;;;;3972199;29;20058;-54
2023/05/21 01:44:35;;;;;;;4.35;3.88;;;18.30;69.60;;;;;;3972224;29;20403;-55
2023/05/21 01:47:17;;;;;;;5.38;4.13;;;18.30;69.70;;;;;;3971355;29;20465;-55
2023/05/21 01:50:00;;;;;;;4.40;4.00;;;18.30;69.90;;;;;;3972342;29;20095;-54
2023/05/21 01:52:49;;;;;;;4.88;4.47;;;18.20;69.80;;;;;;3971586;29;20062;-54
2023/05/21 01:55:30;;;;;;;5.30;4.03;;;18.30;70.00;;;;;;3960926;29;20061;-55
2023/05/21 01:58:12;;;;;;;5.68;3.90;;;18.30;69.90;;;;;;3950741;29;20180;-55
2023/05/21 02:00:53;;;;;;;7.18;4.57;;;18.30;70.00;;;;;;3960783;29;20574;-55
2023/05/21 02:03:35;;;;;;;4.97;4.43;;;18.20;70.00;;;;;;3970941;29;20414;-55
2023/05/21 02:06:16;;;;;;;7.85;4.70;;;18.30;70.00;;;;;;3960816;29;20091;-53
2023/05/21 02:08:58;;;;;;;;;;;18.20;70.00;;;;;;3972147;29;20184;-53
2023/05/21 02:11:39;;;;;;;4.65;4.22;;;18.20;70.00;;;;;;3970935;29;19952;-54
2023/05/21 02:14:24;;;;;;;6.78;4.10;;;18.20;70.00;;;;;;3971363;29;20518;-50
2023/05/21 02:17:04;;;;;;;5.90;4.50;;;18.20;70.00;;;;;;3956985;29;20054;-54
2023/05/21 02:19:45;;;;;;;6.75;4.68;;;18.20;70.10;;;;;;3956844;29;20155;-49
2023/05/21 02:22:26;;;;;;;4.55;4.15;;;18.20;70.90;;;;;;3957580;29;20193;-54
2023/05/21 02:25:09;;;;;;;5.95;4.38;;;18.20;70.00;;;;;;3959735;29;20074;-53
2023/05/21 02:27:52;;;;;;;4.63;3.95;;;18.20;70.00;;;;;;3971151;29;20066;-53
2023/05/21 02:30:34;;;;;;;7.15;4.10;;;18.20;69.90;;;;;;3971716;29;20066;-54
2023/05/21 02:33:16;;;;;;;5.93;4.05;;;18.20;69.90;;;;;;3971513;29;20070;-53
2023/05/21 02:35:57;;;;;;;4.80;4.28;;;18.20;69.80;;;;;;3971413;29;20078;-54
2023/05/21 02:38:42;;;;;;;9.77;4.78;;;18.20;69.70;;;;;;3971336;29;20057;-55
2023/05/21 02:41:22;;;;;;;5.03;4.10;;;18.20;69.70;;;;;;3971323;29;20147;-55
2023/05/21 02:44:04;;;;;;;4.63;3.83;;;18.20;69.70;;;;;;3959913;29;20204;-55
2023/05/21 02:46:46;;;;;;;5.50;3.63;;;18.20;69.70;;;;;;3971350;29;20486;-55
2023/05/21 02:49:28;;;;;;;5.75;4.03;;;18.20;69.70;;;;;;3960318;29;20115;-54
2023/05/21 02:52:10;;;;;;;5.15;3.70;;;18.20;70.60;;;;;;3970294;29;20054;-55
2023/05/21 02:54:52;;;;;;;10.07;4.47;;;18.10;69.70;;;;;;3949958;29;20057;-55
2023/05/21 02:57:33;;;;;;;6.93;5.00;;;18.10;70.70;;;;;;3971224;29;20131;-55
2023/05/21 03:00:15;;;;;;;5.65;4.65;;;18.10;69.90;;;;;;3949601;29;20057;-53
2023/05/21 03:02:58;;;;;;;6.25;4.28;;;18.10;70.00;;;;;;3970305;29;20065;-55
2023/05/21 03:05:39;;;;;;;5.00;4.50;;;18.10;70.10;;;;;;3959354;29;20081;-54
2023/05/21 03:08:21;;;;;;;6.95;5.03;;;18.10;70.10;;;;;;3960158;29;20091;-55
2023/05/21 03:11:02;;;;;;;5.13;4.30;;;18.10;70.20;;;;;;3960020;29;20049;-52
2023/05/21 03:13:43;;;;;;;8.70;4.70;;;18.10;70.20;;;;;;3959658;29;20095;-51
2023/05/21 03:16:24;;;;;;;8.35;5.00;;;18.10;70.20;;;;;;3971210;29;20390;-54
2023/05/21 03:19:06;;;;;;;8.77;4.63;;;18.10;70.30;;;;;;3960164;29;20070;-53
2023/05/21 03:21:49;;;;;;;4.28;3.75;;;18.10;70.50;;;;;;3959496;29;20849;-53
2023/05/21 03:24:30;;;;;;;5.40;4.10;;;18.10;70.50;;;;;;3971049;29;20403;-50
2023/05/21 03:27:11;;;;;;;4.32;3.92;;;18.00;70.60;;;;;;3960159;29;20514;-53
2023/05/21 03:29:53;;;;;;;7.70;4.45;;;18.10;70.60;;;;;;3962285;29;20411;-54
2023/05/21 03:32:36;;;;;;;4.75;4.25;;;18.00;70.60;;;;;;3958669;29;20058;-53
2023/05/21 03:35:19;;;;;;;5.05;4.15;;;18.00;70.60;;;;;;3957662;29;20388;-52
2023/05/21 03:38:03;;;;;;;10.95;4.55;;;18.00;70.70;;;;;;3947155;30;20054;-54
2023/05/21 03:40:44;;;;;;;4.93;4.07;;;18.00;70.70;;;;;;3964631;29;20073;-54
2023/05/21 03:43:25;;;;;;;8.25;4.70;;;18.00;70.60;;;;;;3962727;29;20532;-53
2023/05/21 03:46:06;;;;;;;9.35;4.72;;;18.10;70.70;;;;;;3962235;29;20062;-53
2023/05/21 03:49:06;;;;;;;5.97;4.20;;;18.00;71.60;;;;;;3973425;29;20126;-54
2023/05/21 03:51:50;;;;;;;5.38;4.40;;;18.10;70.80;;;;;;3973002;29;20054;-54
2023/05/21 03:54:33;;;;;;;5.68;4.07;;;18.00;70.80;;;;;;3962486;29;20065;-53
2023/05/21 03:57:18;;;;;;;5.35;4.13;;;18.00;71.00;;;;;;3961519;29;20066;-54
2023/05/21 04:00:00;;;;;;;6.55;4.43;;;18.00;71.00;;;;;;3972416;29;20518;-53
2023/05/21 04:02:41;;;;;;;4.80;4.30;;;18.00;71.10;;;;;;3951390;29;20053;-53
2023/05/21 04:05:22;;;;;;;6.90;4.28;;;18.00;71.10;;;;;;3972684;29;20058;-54
2023/05/21 04:08:05;;;;;;;5.95;4.10;;;18.00;71.10;;;;;;3962519;29;20058;-52
2023/05/21 04:10:46;;;;;;;7.13;4.28;;;18.00;71.10;;;;;;3962026;29;20066;-52
2023/05/21 04:13:28;;;;;;;4.60;4.13;;;18.00;71.20;;;;;;3962161;29;20058;-53
2023/05/21 04:16:09;;;;;;;5.80;3.72;;;18.00;71.20;;;;;;3972840;29;20071;-52
2023/05/21 04:18:51;;;;;;;4.63;3.70;;;18.00;71.30;;;;;;3961991;29;20122;-54
2023/05/21 04:21:32;;;;;;;8.07;3.95;;;18.00;71.40;;;;;;3955505;29;20058;-53
2023/05/21 04:24:14;;;;;;;5.65;3.55;;;17.90;71.30;;;;;;3973414;29;20070;-54
2023/05/21 04:27:08;;;;;;;4.22;3.85;;;17.90;71.40;;;;;;3961814;29;20411;-54
2023/05/21 04:29:50;;;;;;;5.40;3.75;;;17.90;71.40;;;;;;3961982;29;20399;-53
2023/05/21 04:32:32;;;;;;;6.38;4.18;;;17.90;71.40;;;;;;3962058;29;20066;-52
2023/05/21 04:35:13;;;;;;;7.05;3.92;;;17.90;71.50;;;;;;3972171;29;20135;-52
2023/05/21 04:37:54;;;;;;;6.25;3.80;;;17.90;71.50;;;;;;3971876;29;20152;-53
2023/05/21 04:40:36;;;;;;;5.72;3.70;;;17.90;71.60;;;;;;3957583;29;20089;-53
2023/05/21 04:43:24;;;;;;;6.05;4.18;;;17.90;71.60;;;;;;3957274;29;20158;-52
2023/05/21 04:46:06;;;;;;;9.13;4.15;;;17.90;71.70;;;;;;3957127;29;20061;-53
2023/05/21 04:48:51;;;;;;;8.95;4.47;;;17.90;71.70;;;;;;3965254;29;20123;-53
2023/05/21 04:51:32;;;;;;;9.73;4.15;;;17.90;71.70;;;;;;3961583;29;20066;-53
2023/05/21 04:54:13;;;;;;;10.30;4.60;;;17.90;71.70;;;;;;3971257;29;20142;-52
2023/05/21 04:56:56;;;;;;;5.95;4.05;;;17.90;72.60;;;;;;3972893;29;20083;-53
2023/05/21 04:59:38;;;;;;;3.95;3.50;;;17.90;71.80;;;;;;3946899;29;20112;-54
2023/05/21 05:02:20;;;;;;;6.60;4.05;;;17.90;72.80;;;;;;3956999;29;20535;-56
2023/05/21 05:05:01;;;;;;;5.35;4.35;;;17.90;72.00;;;;;;3957750;29;20096;-51
2023/05/21 05:07:42;;;;;;;5.50;3.63;;;17.90;72.10;;;;;;3961036;29;20054;-52
2023/05/21 05:10:23;;;;;;;6.18;3.92;;;17.90;72.20;;;;;;3946414;29;20224;-53
2023/05/21 05:13:06;;;;;;;6.75;3.58;;;17.90;72.10;;;;;;3946426;30;20055;-49
2023/05/21 05:15:47;;;;;;;7.97;4.20;;;17.90;72.10;;;;;;3946458;29;20058;-52
2023/05/21 05:18:32;;;;;;;10.35;4.25;;;17.90;72.00;;;;;;3961189;29;20062;-52
2023/05/21 05:21:13;;;;;;;7.10;4.53;;;18.00;71.90;;;;;;3946404;30;20058;-52
2023/05/21 05:23:54;;;;;;;7.25;4.63;;;18.00;72.70;;;;;;3957607;29;20063;-49
2023/05/21 05:26:39;;;;;;;7.25;4.65;;;18.00;71.60;;;;;;3961712;29;20403;-50
2023/05/21 05:29:21;;;;;;;7.03;4.15;;;18.00;72.30;;;;;;3972136;29;20503;-57
2023/05/21 05:32:02;;;;;;;6.47;3.97;;;18.00;71.30;;;;;;3961244;29;20061;-48
2023/05/21 05:34:45;;;;;;;14.00;4.60;;;18.10;71.50;;;;;;3961013;29;20061;-51
2023/05/21 05:37:26;;;;;;;5.65;3.42;;;18.10;71.20;;;;;;3960712;29;20123;-55
2023/05/21 05:40:08;;;;;;;5.25;3.70;;;18.20;71.10;;;;;;3946471;29;20050;-53
2023/05/21 05:42:51;;;;;;;5.55;3.80;;;18.20;71.00;;;;;;3952510;29;20058;-55
2023/05/21 05:45:33;;;;;;;4.72;3.65;;;18.20;70.90;;;;;;3959548;29;20066;-55
2023/05/21 05:48:17;;;;;;;5.63;3.92;;;18.20;70.70;;;;;;3960685;29;20054;-55
2023/05/21 05:50:58;;;;;;;4.72;3.58;;;18.20;70.60;;;;;;3960185;29;20059;-54
2023/05/21 05:53:39;;;;;;;7.57;3.67;;;18.20;70.60;;;;;;3961017;29;20062;-55
2023/05/21 05:56:21;;;;;;;;;;;18.20;70.50;;;;;;3961360;29;20069;-57
2023/05/21 05:59:01;;;;;;;5.35;3.85;;;18.20;70.50;;;;;;3961843;29;19931;-54
2023/05/21 06:01:45;;;;;;;5.82;3.20;;;18.20;70.50;;;;;;3960644;29;20062;-54
2023/05/21 06:04:28;;;;;;;4.97;3.65;;;18.20;70.50;;;;;;3960755;29;20184;-55
2023/05/21 06:07:10;;;;;;;4.35;3.13;;;18.20;70.60;;;;;;3960077;29;20062;-55
2023/05/21 06:09:51;;;;;;;8.30;3.28;;;18.20;70.60;;;;;;3955860;29;20062;-55
2023/05/21 06:12:32;;;;;;;7.05;3.45;;;18.20;70.60;;;;;;3954904;29;20419;-54
2023/05/21 06:15:13;;;;;;;6.68;3.70;;;18.20;70.60;;;;;;3960317;29;20062;-53
2023/05/21 06:17:56;;;;;;;8.40;3.50;;;18.20;70.60;;;;;;3946030;30;20053;-56
2023/05/21 06:20:37;;;;;;;5.57;3.53;;;18.20;71.50;;;;;;3958444;29;20400;-55
2023/05/21 06:23:18;;;;;;;6.28;3.60;;;18.20;70.80;;;;;;3960205;29;20065;-55
2023/05/21 06:25:59;;;;;;;4.85;3.55;;;18.20;70.80;;;;;;3969965;29;20058;-55
2023/05/21 06:28:40;;;;;;;4.50;3.67;;;18.20;70.80;;;;;;3960596;29;20077;-55
2023/05/21 06:31:23;;;;;;;6.60;3.63;;;18.20;70.80;;;;;;3960283;29;20074;-56
2023/05/21 06:34:06;;;;;;;5.13;3.10;;;18.20;70.90;;;;;;3960594;29;20066;-55
2023/05/21 06:36:48;;;;;;;4.80;3.15;;;18.20;70.90;;;;;;3960102;29;20058;-55
2023/05/21 06:39:30;;;;;;;5.22;2.92;;;18.20;70.70;;;;;;3960184;29;20062;-53
2023/05/21 06:42:11;;;;;;;4.65;2.97;;;18.20;70.70;;;;;;3960956;29;20065;-55
2023/05/21 06:45:00;;;;;;;6.88;3.10;;;18.20;70.70;;;;;;3949335;29;20184;-55
2023/05/21 06:47:44;;;;;;;4.90;3.22;;;18.20;70.60;;;;;;3949906;29;20065;-55
2023/05/21 06:50:27;;;;;;;6.43;3.65;;;18.20;70.60;;;;;;3969242;29;20123;-55
2023/05/21 06:53:08;;;;;;;4.05;3.63;;;18.20;70.40;;;;;;3960584;29;20208;-55
2023/05/21 06:55:52;;;;;;;5.70;3.05;;;18.20;70.40;;;;;;3971250;29;20062;-55
2023/05/21 06:58:48;;;;;;;6.35;3.50;;;18.20;70.50;;;;;;3970261;29;20859;-55
2023/05/21 07:01:31;;;;;;;6.43;3.50;;;18.20;70.60;;;;;;3970275;29;20126;-54
2023/05/21 07:04:12;;;;;;;5.88;3.97;;;18.20;70.80;;;;;;3959832;29;20066;-55
2023/05/21 07:06:56;;;;;;;4.85;3.65;;;18.20;70.90;;;;;;3960375;29;20399;-55
2023/05/21 07:09:37;;;;;;;5.28;3.50;;;18.20;71.10;;;;;;3960280;29;20187;-58
2023/05/21 07:12:20;;;;;;;5.65;3.42;;;18.20;71.10;;;;;;3959981;29;20552;-56
2023/05/21 07:15:11;;;;;;;5.60;3.50;;;18.20;71.20;;;;;;3969894;29;20115;-55
2023/05/21 07:17:52;;;;;;;5.72;3.78;;;18.20;71.40;;;;;;3959882;29;20143;-55
2023/05/21 07:20:33;;;;;;;6.28;3.67;;;18.20;71.50;;;;;;3957119;29;20208;-56
2023/05/21 07:23:20;;;;;;;6.05;3.70;;;18.20;72.50;;;;;;3964474;29;20107;-54
2023/05/21 07:26:01;;;;;;;6.38;3.88;;;18.20;71.70;;;;;;3970477;29;20126;-51
2023/05/21 07:28:42;;;;;;;6.10;3.58;;;18.20;71.80;;;;;;3959515;29;20062;-57
2023/05/21 07:31:24;;;;;;;4.80;3.42;;;18.20;71.90;;;;;;3952141;29;20529;-56
2023/05/21 07:34:06;;;;;;;5.22;3.75;;;18.20;72.00;;;;;;3958960;29;20062;-55
2023/05/21 07:36:47;;;;;;;6.65;3.58;;;18.20;72.20;;;;;;3965172;29;20056;-55
2023/05/21 07:39:31;;;;;;;8.75;3.97;;;18.30;72.40;;;;;;3978431;29;20070;-55
2023/05/21 07:42:12;;;;;;;4.43;3.80;;;18.30;72.40;;;;;;3968960;29;20065;-55
2023/05/21 07:44:53;;;;;;;7.88;4.00;;;18.20;73.30;;;;;;3984123;29;20066;-55
2023/05/21 07:47:36;;;;;;;5.10;3.85;;;18.20;72.50;;;;;;3975429;29;20082;-56
2023/05/21 07:50:17;;;;;;;6.15;3.78;;;18.30;72.60;;;;;;3948366;29;20066;-53
2023/05/21 07:52:58;;;;;;;8.75;4.03;;;18.30;72.70;;;;;;3958786;29;20058;-54
2023/05/21 07:55:46;;;;;;;5.07;3.47;;;18.30;72.70;;;;;;3955648;29;20088;-53
2023/05/21 07:58:29;;;;;;;5.68;3.45;;;18.30;72.80;;;;;;3982858;29;20081;-52
2023/05/21 08:01:11;;;;;;;5.78;3.30;;;18.30;72.80;;;;;;3961184;29;20127;-55
2023/05/21 08:03:55;;;;;;;5.78;3.92;;;18.30;73.00;;;;;;3959064;29;20523;-53
2023/05/21 08:06:38;;;;;;;5.75;3.42;;;18.40;73.10;;;;;;3944433;29;20228;-54
2023/05/21 08:09:19;;;;;;;5.60;3.47;;;18.30;73.10;;;;;;3955881;29;20051;-56
2023/05/21 08:12:02;;;;;;;6.35;3.72;;;18.30;73.30;;;;;;3954999;29;20057;-56
2023/05/21 08:14:43;;;;;;;5.85;3.67;;;18.40;73.50;;;;;;3956667;29;20062;-56
2023/05/21 08:17:27;;;;;;;4.00;3.70;;;18.40;73.50;;;;;;3957774;29;20066;-54
2023/05/21 08:20:09;;;;;;;5.50;3.50;;;18.40;73.70;;;;;;3948245;29;20080;-55
2023/05/21 08:22:52;;;;;;;7.20;3.70;;;18.40;73.50;;;;;;3960436;29;20061;-55
2023/05/21 08:25:32;;;;;;;;;;;18.40;73.50;;;;;;3977811;29;20102;-55
2023/05/21 08:28:17;;;;;;;4.68;3.47;;;18.40;73.50;;;;;;3971911;29;20342;-56
2023/05/21 08:30:59;;;;;;;4.60;3.33;;;18.40;73.60;;;;;;3960901;29;20066;-55
2023/05/21 08:33:49;;;;;;;6.78;3.67;;;18.50;73.60;;;;;;3957191;29;20054;-55
2023/05/21 08:36:32;;;;;;;10.82;4.18;;;18.40;73.60;;;;;;3967968;29;20079;-54
2023/05/21 08:39:18;;;;;;;8.13;4.05;;;18.50;73.90;;;;;;3969799;29;20065;-53
2023/05/21 08:42:15;;;;;;;10.50;3.88;;;18.50;73.90;;;;;;3987002;29;20069;-55
2023/05/21 08:45:08;;;;;;;6.80;4.15;;;18.50;74.00;;;;;;3967479;29;20502;-55
2023/05/21 08:47:55;;;;;;;5.13;3.70;;;18.50;74.00;;;;;;3950630;29;20143;-55
2023/05/21 08:50:38;;;;;;;7.68;4.72;;;18.50;74.10;;;;;;3971874;29;20438;-54
2023/05/21 08:53:26;;;;;;;4.00;3.60;;;18.50;75.10;;;;;;3963157;29;20070;-55
2023/05/21 08:56:11;;;;;;;6.35;4.03;;;18.60;74.20;;;;;;3972610;29;20131;-55
2023/05/21 08:59:01;;;;;;;6.60;3.80;;;18.60;74.00;;;;;;3971545;29;20057;-55
2023/05/21 09:01:49;;;;;;;5.78;4.43;;;18.60;74.00;;;;;;3950762;29;20082;-53
2023/05/21 09:04:37;;;;;;;7.65;4.45;;;18.70;74.10;;;;;;3970269;29;20199;-52
2023/05/21 09:07:19;;;;;;;7.70;4.20;;;18.70;74.20;;;;;;3961180;29;20053;-53
2023/05/21 09:10:29;;;;;;;5.25;4.13;;;18.70;74.00;;;;;;3972072;29;20086;-54
2023/05/21 09:13:11;;;;;;;7.13;4.13;;;18.80;73.90;;;;;;3971202;29;20054;-56
2023/05/21 09:15:51;;;;;;;7.28;4.13;;;18.80;73.70;;;;;;3967591;29;20533;-55
2023/05/21 09:18:35;;;;;;;7.28;4.22;;;18.80;73.60;;;;;;3960861;29;20137;-55
2023/05/21 09:21:31;;;;;;;6.35;4.00;;;18.80;73.70;;;;;;3960571;29;20073;-55
2023/05/21 09:24:17;;;;;;;7.03;4.03;;;18.90;73.40;;;;;;3970799;29;20514;-54
2023/05/21 09:26:59;;;;;;;4.93;3.40;;;18.90;73.20;;;;;;3960451;29;20065;-56
2023/05/21 09:29:42;;;;;;;5.43;3.80;;;18.90;73.20;;;;;;3971575;29;20062;-54
2023/05/21 09:32:23;;;;;;;7.90;3.63;;;19.00;73.00;;;;;;3971327;29;20130;-56
2023/05/21 09:35:10;;;;;;;5.50;4.05;;;19.00;72.90;;;;;;3960162;29;20107;-53
2023/05/21 09:37:52;;;;;;;4.28;3.53;;;19.00;72.80;;;;;;3971066;29;20126;-56
2023/05/21 09:40:35;;;;;;;4.75;3.90;;;19.00;72.60;;;;;;3975805;29;20390;-52
2023/05/21 09:43:17;;;;;;;3.92;3.42;;;19.10;72.70;;;;;;3985630;29;20414;-55
2023/05/21 09:46:01;;;;;;;7.05;4.03;;;19.10;72.70;;;;;;3957104;29;20100;-54
2023/05/21 09:48:45;;;;;;;7.45;4.15;;;19.10;72.80;;;;;;3957220;29;20141;-55
2023/05/21 09:51:30;;;;;;;5.35;3.95;;;19.10;72.60;;;;;;3956358;29;20059;-56
2023/05/21 09:54:11;;;;;;;5.95;3.60;;;19.10;72.70;;;;;;3963895;29;20058;-56
2023/05/21 09:56:53;;;;;;;3.80;3.50;;;19.20;72.70;;;;;;3971585;29;20610;-56
2023/05/21 09:59:38;;;;;;;5.90;3.97;;;19.20;72.60;;;;;;3971577;29;20057;-55
2023/05/21 10:02:21;;;;;;;7.60;4.10;;;19.30;73.70;;;;;;3971441;29;20187;-54
2023/05/21 10:05:05;;;;;;;5.07;3.63;;;19.30;72.50;;;;;;3971805;29;20050;-57
2023/05/21 10:07:50;;;;;;;4.43;3.83;;;19.30;72.30;;;;;;3964393;29;20057;-52
2023/05/21 10:10:32;;;;;;;7.00;3.45;;;19.30;72.20;;;;;;3959982;29;20061;-55
2023/05/21 10:13:15;;;;;;;6.80;3.88;;;19.40;72.30;;;;;;3971391;29;20062;-57
2023/05/21 10:16:02;;;;;;;7.35;4.05;;;19.40;72.40;;;;;;3970968;29;20521;-54
2023/05/21 10:18:45;;;;;;;6.43;3.75;;;19.40;72.20;;;;;;3959621;29;20066;-55
2023/05/21 10:21:26;;;;;;;7.32;3.75;;;19.40;72.90;;;;;;3948409;29;20437;-55
2023/05/21 10:24:10;;;;;;;4.13;3.42;;;19.50;72.00;;;;;;3958930;29;20184;-56
2023/05/21 10:26:52;;;;;;;5.63;4.22;;;19.50;72.00;;;;;;3963772;29;20065;-55
2023/05/21 10:29:33;;;;;;;;;;;19.50;71.90;;;;;;3970679;29;20062;-54
2023/05/21 10:32:16;;;;;;;6.82;4.20;;;19.50;71.80;;;;;;3971228;29;19932;-54
2023/05/21 10:34:58;;;;;;;8.50;3.95;;;19.50;71.80;;;;;;3970830;29;20423;-55
2023/05/21 10:37:43;;;;;;;7.60;3.92;;;19.60;72.10;;;;;;3956042;29;20058;-54
2023/05/21 10:40:25;;;;;;;5.63;3.97;;;19.50;71.80;;;;;;3945503;29;20058;-56
2023/05/21 10:43:35;;;;;;;6.97;4.78;;;19.60;72.20;;;;;;3956476;29;20507;-53
2023/05/21 10:46:47;;;;;;;6.82;4.63;;;19.60;72.30;;;;;;3955936;29;20054;-57
2023/05/21 10:49:45;;;;;;;9.65;4.22;;;19.70;72.00;;;;;;3956013;29;20400;-56
2023/05/21 10:52:42;;;;;;;7.05;4.47;;;19.70;71.80;;;;;;3962773;29;20058;-58
2023/05/21 10:55:36;;;;;;;6.60;3.97;;;19.70;71.70;;;;;;3955718;29;20070;-54
2023/05/21 10:58:39;;;;;;;4.47;4.07;;;19.70;71.60;;;;;;3969894;29;20057;-55
2023/05/21 11:01:20;;;;;;;8.13;4.47;;;19.70;71.70;;;;;;3956021;29;20063;-55
2023/05/21 11:04:02;;;;;;;5.72;4.60;;;19.70;71.80;;;;;;3956116;29;20404;-55
2023/05/21 11:06:48;;;;;;;7.28;4.97;;;19.70;72.10;;;;;;3970459;29;20064;-54
2023/05/21 11:09:28;;;;;;;8.50;4.47;;;19.70;72.00;;;;;;3970805;29;20071;-56
2023/05/21 11:12:16;;;;;;;6.32;4.65;;;19.80;72.10;;;;;;3970919;29;20057;-56
2023/05/21 11:14:58;;;;;;;5.53;4.60;;;19.80;72.30;;;;;;3970815;29;20566;-56
2023/05/21 11:17:40;;;;;;;8.85;4.72;;;19.80;72.10;;;;;;3959745;29;20168;-55
2023/05/21 11:20:22;;;;;;;7.53;5.18;;;19.80;72.30;;;;;;3970308;29;20101;-56
2023/05/21 11:23:04;;;;;;;8.50;5.22;;;19.80;72.70;;;;;;3970918;29;20072;-56
2023/05/21 11:26:00;;;;;;;6.45;5.28;;;19.90;72.80;;;;;;3970944;29;20058;-56
2023/05/21 11:28:42;;;;;;;9.48;5.13;;;19.90;73.00;;;;;;3970000;29;20074;-56
2023/05/21 11:31:36;;;;;;;7.07;4.55;;;19.90;72.90;;;;;;3955784;29;20107;-55
2023/05/21 11:34:20;;;;;;;9.18;5.40;;;19.90;73.00;;;;;;3955874;29;20527;-54
2023/05/21 11:37:28;;;;;;;6.60;5.13;;;19.90;73.60;;;;;;3955885;29;20568;-56
2023/05/21 11:40:30;;;;;;;8.95;5.75;;;20.00;72.90;;;;;;3955486;29;20515;-54
2023/05/21 11:43:11;;;;;;;8.77;5.60;;;20.00;72.80;;;;;;3963303;29;20054;-56
2023/05/21 11:45:54;;;;;;;8.73;5.55;;;20.00;72.80;;;;;;3969354;29;20529;-56
2023/05/21 11:48:37;;;;;;;7.43;5.53;;;20.00;72.80;;;;;;3971241;29;20066;-52
2023/05/21 11:51:20;;;;;;;10.57;6.07;;;20.00;72.90;;;;;;3973686;29;20510;-57
2023/05/21 11:54:01;;;;;;;9.93;6.07;;;20.00;73.00;;;;;;3973475;29;20066;-52
2023/05/21 11:56:42;;;;;;;11.65;6.38;;;20.00;73.80;;;;;;3973646;29;20518;-53
2023/05/21 11:59:23;;;;;;;8.02;7.15;;;20.00;73.00;;;;;;3973275;29;20070;-56
2023/05/21 12:02:06;;;;;;;9.00;6.35;;;20.10;73.20;;;;;;3973369;29;20117;-54
2023/05/21 12:04:49;;;;;;;9.32;5.97;;;20.10;73.30;;;;;;3973403;29;20534;-55
2023/05/21 12:07:30;;;;;;;8.20;6.75;;;20.10;73.40;;;;;;3973147;29;20066;-52
2023/05/21 12:10:12;;;;;;;8.93;6.88;;;20.10;73.50;;;;;;3973010;29;20062;-53
2023/05/21 12:12:53;;;;;;;10.10;6.55;;;20.10;73.70;;;;;;3973233;29;20115;-56
2023/05/21 12:15:37;;;;;;;10.45;6.63;;;20.10;73.70;;;;;;3973256;29;20058;-54
2023/05/21 12:18:20;;;;;;;10.05;7.20;;;20.20;73.90;;;;;;3951755;29;20061;-52
2023/05/21 12:21:01;;;;;;;13.80;6.95;;;20.20;73.70;;;;;;3973248;29;20053;-55
2023/05/21 12:23:42;;;;;;;10.30;6.85;;;20.20;73.70;;;;;;3972065;29;20058;-55
2023/05/21 12:26:25;;;;;;;7.63;6.63;;;20.20;73.90;;;;;;3958221;29;20062;-55
2023/05/21 12:29:06;;;;;;;9.40;7.28;;;20.20;74.30;;;;;;3958574;29;20184;-54
2023/05/21 12:31:48;;;;;;;10.75;6.90;;;20.30;74.40;;;;;;3958436;29;20074;-52
2023/05/21 12:34:43;;;;;;;8.98;6.05;;;20.30;74.40;;;;;;3972537;29;20089;-52
2023/05/21 12:37:30;;;;;;;11.27;7.20;;;20.30;74.40;;;;;;3972679;29;20069;-56
2023/05/21 12:40:12;;;;;;;10.40;7.80;;;20.30;74.60;;;;;;3972826;29;20099;-55
2023/05/21 12:42:53;;;;;;;11.55;7.55;;;20.40;74.80;;;;;;3957895;29;20066;-53
2023/05/21 12:45:35;;;;;;;12.75;7.68;;;20.40;75.00;;;;;;3958088;29;20074;-53
2023/05/21 12:48:16;;;;;;;12.07;7.72;;;20.40;75.10;;;;;;3957962;29;20058;-53
2023/05/21 12:51:00;;;;;;;10.68;8.75;;;20.40;74.90;;;;;;3957695;29;20185;-55
2023/05/21 12:53:43;;;;;;;15.77;9.15;;;20.40;75.10;;;;;;3957813;29;20103;-52
2023/05/21 12:56:24;;;;;;;14.23;8.70;;;20.40;75.10;;;;;;3957717;29;20121;-53
2023/05/21 12:59:12;;;;;;;14.57;9.50;;;20.40;75.30;;;;;;3971610;29;20184;-56
2023/05/21 13:01:53;;;;;;;13.02;8.50;;;20.50;75.60;;;;;;3972589;29;20453;-56
2023/05/21 13:04:36;;;;;;;14.63;10.30;;;20.50;75.90;;;;;;3972680;29;20062;-56
2023/05/21 13:07:18;;;;;;;13.70;10.13;;;20.50;76.20;;;;;;3972342;29;20061;-55
2023/05/21 13:10:00;;;;;;;17.73;11.90;;;20.50;76.40;;;;;;3972549;29;20506;-56
2023/05/21 13:12:42;;;;;;;14.50;10.65;;;20.50;76.60;;;;;;3961353;29;20139;-57
2023/05/21 13:15:24;;;;;;;17.98;11.50;;;20.60;76.70;;;;;;3957538;29;20526;-56
2023/05/21 13:18:05;;;;;;;13.63;10.13;;;20.60;76.70;;;;;;3957721;29;20419;-58
2023/05/21 13:20:47;;;;;;;16.88;11.65;;;20.60;76.70;;;;;;3957475;29;20062;-56
2023/05/21 13:23:29;;;;;;;13.18;10.60;;;20.60;77.00;;;;;;3957288;29;20116;-55
2023/05/21 13:26:10;;;;;;;18.20;12.25;;;20.70;77.40;;;;;;3946260;30;20164;-55
2023/05/21 13:28:51;;;;;;;14.05;11.35;;;20.70;77.50;;;;;;3956954;29;20054;-56
2023/05/21 13:31:32;;;;;;;18.27;11.65;;;20.70;77.40;;;;;;3957298;29;20108;-56
2023/05/21 13:34:13;;;;;;;17.48;13.57;;;20.80;77.50;;;;;;3946099;29;20221;-55
2023/05/21 13:36:54;;;;;;;;;;;20.80;77.80;;;;;;3957589;29;20146;-52
2023/05/21 13:39:36;;;;;;;17.42;12.18;;;20.80;77.70;;;;;;3957049;29;19933;-55
2023/05/21 13:42:18;;;;;;;18.02;12.43;;;20.80;77.70;;;;;;3957137;29;20054;-55
2023/05/21 13:44:59;;;;;;;15.23;12.00;;;20.80;78.10;;;;;;3957024;29;20058;-56
2023/05/21 13:47:41;;;;;;;18.70;12.52;;;20.90;78.30;;;;;;3970966;29;20087;-56
2023/05/21 13:50:23;;;;;;;19.77;12.52;;;20.90;78.50;;;;;;3971817;29;20563;-55
2023/05/21 13:53:04;;;;;;;18.30;13.85;;;20.90;78.50;;;;;;3960617;29;20070;-52
2023/05/21 13:55:46;;;;;;;20.45;14.02;;;20.90;78.80;;;;;;3971786;29;20050;-56
2023/05/21 13:58:26;;;;;;;22.13;15.02;;;21.00;78.70;;;;;;3971800;29;20061;-53
2023/05/21 14:01:08;;;;;;;23.17;14.18;;;21.00;78.90;;;;;;3960372;29;20171;-54
2023/05/21 14:03:49;;;;;;;19.33;15.70;;;21.00;79.10;;;;;;3971640;29;20065;-56
2023/05/21 14:06:31;;;;;;;19.75;13.75;;;21.00;79.20;;;;;;3971866;29;20090;-55
2023/05/21 14:09:12;;;;;;;20.13;12.18;;;21.10;79.30;;;;;;3971420;29;20529;-55